sensor_id;sensor_type;location;lat;lon;timestamp;pressure;altitude;pressure_sealevel;temperature;humidity
84022;BME280;74108;48.636;9.492;2024-02-26T00:01:37;95867.06;;;9.25;48.75
84022;BME280;74108;48.636;9.492;2024-02-26T00:04:03;95872.97;;;9.30;51.75
84022;BME280;74108;48.636;9.492;2024-02-26T00:06:29;95876.66;;;9.29;51.51
84022;BME280;74108;48.636;9.492;2024-02-26T00:08:55;95877.72;;;9.28;51.54
84022;BME280;74108;48.636;9.492;2024-02-26T00:11:21;95873.94;;;9.21;48.22
84022;BME280;74108;48.636;9.492;2024-02-26T00:13:46;95882.44;;;9.26;51.74
84022;BME280;74108;48.636;9.492;2024-02-26T00:16:11;95886.28;;;9.15;52.22
84022;BME280;74108;48.636;9.492;2024-02-26T00:18:37;95883.06;;;9.04;52.12
84022;BME280;74108;48.636;9.492;2024-02-26T00:21:02;95883.25;;;9.08;51.06
84022;BME280;74108;48.636;9.492;2024-02-26T00:23:28;95890.38;;;9.21;51.75
84022;BME280;74108;48.636;9.492;2024-02-26T00:25:53;95883.56;;;9.06;51.36
84022;BME280;74108;48.636;9.492;2024-02-26T00:28:20;95881.06;;;9.15;50.59
84022;BME280;74108;48.636;9.492;2024-02-26T00:30:46;95879.13;;;9.07;50.29
84022;BME280;74108;48.636;9.492;2024-02-26T00:33:12;95872.13;;;9.02;49.54
84022;BME280;74108;48.636;9.492;2024-02-26T00:35:38;95880.09;;;9.11;49.73
84022;BME280;74108;48.636;9.492;2024-02-26T00:38:03;95879.03;;;8.93;50.37
84022;BME280;74108;48.636;9.492;2024-02-26T00:40:29;95884.13;;;8.85;50.77
84022;BME280;74108;48.636;9.492;2024-02-26T00:42:55;95874.03;;;8.97;49.78
84022;BME280;74108;48.636;9.492;2024-02-26T00:45:20;95877.97;;;9.13;48.87
84022;BME280;74108;48.636;9.492;2024-02-26T00:47:45;95868.84;;;9.10;50.02
84022;BME280;74108;48.636;9.492;2024-02-26T00:50:12;95871.34;;;9.02;49.68
84022;BME280;74108;48.636;9.492;2024-02-26T00:52:38;95868.66;;;9.07;49.59
84022;BME280;74108;48.636;9.492;2024-02-26T00:55:03;95880.34;;;9.09;51.55
84022;BME280;74108;48.636;9.492;2024-02-26T00:57:29;95863.34;;;9.12;51.21
84022;BME280;74108;48.636;9.492;2024-02-26T00:59:54;95870.91;;;9.13;50.28
84022;BME280;74108;48.636;9.492;2024-02-26T01:02:21;95874.88;;;9.11;49.97
84022;BME280;74108;48.636;9.492;2024-02-26T01:04:47;95871.09;;;9.17;50.30
84022;BME280;74108;48.636;9.492;2024-02-26T01:07:12;95877.00;;;9.09;51.13
84022;BME280;74108;48.636;9.492;2024-02-26T01:09:38;95865.88;;;9.17;50.41
84022;BME280;74108;48.636;9.492;2024-02-26T01:12:03;95865.69;;;9.13;48.12
84022;BME280;74108;48.636;9.492;2024-02-26T01:14:29;95869.75;;;9.19;47.35
84022;BME280;74108;48.636;9.492;2024-02-26T01:16:54;95863.75;;;9.19;47.12
84022;BME280;74108;48.636;9.492;2024-02-26T01:19:20;95860.50;;;9.27;47.57
84022;BME280;74108;48.636;9.492;2024-02-26T01:21:45;95863.13;;;9.27;46.91
84022;BME280;74108;48.636;9.492;2024-02-26T01:24:11;95863.75;;;9.19;47.70
84022;BME280;74108;48.636;9.492;2024-02-26T01:26:36;95872.38;;;9.19;47.78
84022;BME280;74108;48.636;9.492;2024-02-26T01:29:02;95868.59;;;9.26;50.53
84022;BME280;74108;48.636;9.492;2024-02-26T01:31:27;95865.81;;;9.03;51.45
84022;BME280;74108;48.636;9.492;2024-02-26T01:33:52;95862.06;;;9.09;51.43
84022;BME280;74108;48.636;9.492;2024-02-26T01:36:18;95854.81;;;9.06;52.00
84022;BME280;74108;48.636;9.492;2024-02-26T01:38:43;95853.84;;;9.02;51.99
84022;BME280;74108;48.636;9.492;2024-02-26T01:41:10;95867.25;;;8.96;53.61
84022;BME280;74108;48.636;9.492;2024-02-26T01:43:35;95859.41;;;8.96;52.19
84022;BME280;74108;48.636;9.492;2024-02-26T01:46:00;95862.13;;;8.91;52.55
84022;BME280;74108;48.636;9.492;2024-02-26T01:48:26;95871.78;;;8.90;53.35
84022;BME280;74108;48.636;9.492;2024-02-26T01:50:51;95858.72;;;8.90;52.78
84022;BME280;74108;48.636;9.492;2024-02-26T01:53:18;95872.63;;;8.86;53.65
84022;BME280;74108;48.636;9.492;2024-02-26T01:55:44;95879.38;;;8.87;55.33
84022;BME280;74108;48.636;9.492;2024-02-26T01:58:09;95881.25;;;8.68;55.20
84022;BME280;74108;48.636;9.492;2024-02-26T02:00:35;95880.22;;;8.64;55.61
84022;BME280;74108;48.636;9.492;2024-02-26T02:03:02;95889.56;;;8.70;55.48
84022;BME280;74108;48.636;9.492;2024-02-26T02:05:28;95898.72;;;8.67;55.12
84022;BME280;74108;48.636;9.492;2024-02-26T02:07:54;95890.41;;;8.84;55.56
84022;BME280;74108;48.636;9.492;2024-02-26T02:10:19;95904.38;;;8.74;56.07
84022;BME280;74108;48.636;9.492;2024-02-26T02:12:48;95910.63;;;8.55;58.63
84022;BME280;74108;48.636;9.492;2024-02-26T02:15:14;95895.81;;;8.50;58.29
84022;BME280;74108;48.636;9.492;2024-02-26T02:17:39;95899.69;;;8.53;58.25
84022;BME280;74108;48.636;9.492;2024-02-26T02:20:08;95899.63;;;8.58;57.37
84022;BME280;74108;48.636;9.492;2024-02-26T02:22:34;95899.19;;;8.51;59.50
84022;BME280;74108;48.636;9.492;2024-02-26T02:24:59;95881.69;;;8.32;57.32
84022;BME280;74108;48.636;9.492;2024-02-26T02:27:26;95892.31;;;8.36;57.46
84022;BME280;74108;48.636;9.492;2024-02-26T02:29:52;95895.38;;;8.43;57.60
84022;BME280;74108;48.636;9.492;2024-02-26T02:32:19;95907.59;;;8.47;59.72
84022;BME280;74108;48.636;9.492;2024-02-26T02:34:44;95927.81;;;8.08;60.36
84022;BME280;74108;48.636;9.492;2024-02-26T02:37:10;95937.50;;;8.08;60.30
84022;BME280;74108;48.636;9.492;2024-02-26T02:39:36;95934.81;;;8.13;59.06
84022;BME280;74108;48.636;9.492;2024-02-26T02:42:02;95933.88;;;8.32;59.58
84022;BME280;74108;48.636;9.492;2024-02-26T02:44:27;95931.91;;;8.43;57.73
84022;BME280;74108;48.636;9.492;2024-02-26T02:46:58;95929.53;;;8.46;58.93
84022;BME280;74108;48.636;9.492;2024-02-26T02:49:23;95939.97;;;8.46;59.18
84022;BME280;74108;48.636;9.492;2024-02-26T02:51:49;95934.50;;;8.43;59.19
84022;BME280;74108;48.636;9.492;2024-02-26T02:54:14;95932.84;;;8.52;58.73
84022;BME280;74108;48.636;9.492;2024-02-26T02:56:39;95927.91;;;8.51;58.04
84022;BME280;74108;48.636;9.492;2024-02-26T02:59:05;95933.63;;;8.53;58.51
84022;BME280;74108;48.636;9.492;2024-02-26T03:01:30;95929.63;;;8.36;60.10
84022;BME280;74108;48.636;9.492;2024-02-26T03:03:56;95928.41;;;8.29;60.00
84022;BME280;74108;48.636;9.492;2024-02-26T03:06:21;95922.59;;;8.37;59.99
84022;BME280;74108;48.636;9.492;2024-02-26T03:08:47;95914.72;;;8.42;60.01
84022;BME280;74108;48.636;9.492;2024-02-26T03:11:13;95914.41;;;8.43;60.69
84022;BME280;74108;48.636;9.492;2024-02-26T03:13:40;95906.50;;;8.30;60.87
84022;BME280;74108;48.636;9.492;2024-02-26T03:16:05;95907.28;;;8.30;60.76
84022;BME280;74108;48.636;9.492;2024-02-26T03:18:31;95912.75;;;8.29;60.94
84022;BME280;74108;48.636;9.492;2024-02-26T03:20:56;95904.44;;;8.27;61.34
84022;BME280;74108;48.636;9.492;2024-02-26T03:23:21;95909.19;;;8.20;60.72
84022;BME280;74108;48.636;9.492;2024-02-26T03:25:47;95913.94;;;8.13;62.03
84022;BME280;74108;48.636;9.492;2024-02-26T03:28:14;95919.50;;;8.06;61.79
84022;BME280;74108;48.636;9.492;2024-02-26T03:30:39;95931.13;;;7.90;63.39
84022;BME280;74108;48.636;9.492;2024-02-26T03:33:04;95924.97;;;7.81;62.07
84022;BME280;74108;48.636;9.492;2024-02-26T03:35:30;95926.03;;;7.80;62.01
84022;BME280;74108;48.636;9.492;2024-02-26T03:37:55;95913.13;;;7.94;61.32
84022;BME280;74108;48.636;9.492;2024-02-26T03:40:21;95928.50;;;7.95;61.34
84022;BME280;74108;48.636;9.492;2024-02-26T03:42:46;95932.84;;;7.76;62.30
84022;BME280;74108;48.636;9.492;2024-02-26T03:45:12;95942.59;;;7.65;63.91
84022;BME280;74108;48.636;9.492;2024-02-26T03:47:38;95928.28;;;7.63;63.85
84022;BME280;74108;48.636;9.492;2024-02-26T03:50:06;95926.31;;;7.50;64.82
84022;BME280;74108;48.636;9.492;2024-02-26T03:52:32;95937.09;;;7.67;65.45
84022;BME280;74108;48.636;9.492;2024-02-26T03:54:57;95956.56;;;7.46;65.43
84022;BME280;74108;48.636;9.492;2024-02-26T03:57:22;95956.78;;;7.49;66.03
84022;BME280;74108;48.636;9.492;2024-02-26T03:59:48;95955.13;;;7.63;65.92
84022;BME280;74108;48.636;9.492;2024-02-26T04:02:13;95941.84;;;7.60;64.41
84022;BME280;74108;48.636;9.492;2024-02-26T04:04:38;95934.91;;;7.79;64.54
84022;BME280;74108;48.636;9.492;2024-02-26T04:07:04;95944.63;;;7.73;64.57
84022;BME280;74108;48.636;9.492;2024-02-26T04:09:31;95930.59;;;7.64;64.68
84022;BME280;74108;48.636;9.492;2024-02-26T04:11:57;95923.66;;;7.84;65.46
84022;BME280;74108;48.636;9.492;2024-02-26T04:14:23;95910.13;;;7.82;65.58
84022;BME280;74108;48.636;9.492;2024-02-26T04:16:48;95912.94;;;7.56;66.04
84022;BME280;74108;48.636;9.492;2024-02-26T04:19:16;95891.03;;;7.29;67.82
84022;BME280;74108;48.636;9.492;2024-02-26T04:21:42;95877.19;;;7.33;67.27
84022;BME280;74108;48.636;9.492;2024-02-26T04:24:07;95859.47;;;7.35;66.24
84022;BME280;74108;48.636;9.492;2024-02-26T04:26:32;95884.19;;;7.38;66.52
84022;BME280;74108;48.636;9.492;2024-02-26T04:28:58;95888.94;;;7.31;67.78
84022;BME280;74108;48.636;9.492;2024-02-26T04:31:23;95904.53;;;7.36;65.71
84022;BME280;74108;48.636;9.492;2024-02-26T04:33:48;95914.34;;;7.44;65.78
84022;BME280;74108;48.636;9.492;2024-02-26T04:36:14;95927.16;;;7.40;64.68
84022;BME280;74108;48.636;9.492;2024-02-26T04:38:45;95930.38;;;7.61;63.73
84022;BME280;74108;48.636;9.492;2024-02-26T04:41:11;95932.69;;;7.62;60.78
84022;BME280;74108;48.636;9.492;2024-02-26T04:43:37;95927.09;;;7.79;59.17
84022;BME280;74108;48.636;9.492;2024-02-26T04:46:09;95912.38;;;7.88;59.98
84022;BME280;74108;48.636;9.492;2024-02-26T04:48:35;95909.03;;;8.11;60.69
84022;BME280;74108;48.636;9.492;2024-02-26T04:51:01;95911.63;;;8.11;60.22
84022;BME280;74108;48.636;9.492;2024-02-26T04:53:27;95915.53;;;8.14;60.77
84022;BME280;74108;48.636;9.492;2024-02-26T04:55:52;95914.97;;;8.17;60.40
84022;BME280;74108;48.636;9.492;2024-02-26T04:58:17;95910.75;;;8.21;61.30
84022;BME280;74108;48.636;9.492;2024-02-26T05:00:43;95908.34;;;8.24;61.31
84022;BME280;74108;48.636;9.492;2024-02-26T05:03:08;95906.38;;;8.16;60.69
84022;BME280;74108;48.636;9.492;2024-02-26T05:05:47;95896.34;;;7.76;61.77
84022;BME280;74108;48.636;9.492;2024-02-26T05:08:12;95896.00;;;7.59;63.76
84022;BME280;74108;48.636;9.492;2024-02-26T05:10:38;95889.91;;;7.68;64.10
84022;BME280;74108;48.636;9.492;2024-02-26T05:13:09;95880.69;;;7.76;64.46
84022;BME280;74108;48.636;9.492;2024-02-26T05:15:35;95876.44;;;7.85;64.10
84022;BME280;74108;48.636;9.492;2024-02-26T05:18:00;95886.06;;;7.90;64.53
84022;BME280;74108;48.636;9.492;2024-02-26T05:20:26;95887.84;;;7.94;65.27
84022;BME280;74108;48.636;9.492;2024-02-26T05:22:51;95885.78;;;7.91;65.65
84022;BME280;74108;48.636;9.492;2024-02-26T05:25:17;95877.66;;;7.93;65.38
84022;BME280;74108;48.636;9.492;2024-02-26T05:27:43;95879.00;;;7.90;64.79
84022;BME280;74108;48.636;9.492;2024-02-26T05:30:10;95884.44;;;7.94;65.20
84022;BME280;74108;48.636;9.492;2024-02-26T05:32:35;95878.84;;;7.82;65.40
84022;BME280;74108;48.636;9.492;2024-02-26T05:35:01;95887.25;;;7.97;64.58
84022;BME280;74108;48.636;9.492;2024-02-26T05:37:28;95883.16;;;7.91;63.85
84022;BME280;74108;48.636;9.492;2024-02-26T05:39:53;95894.69;;;7.85;65.57
84022;BME280;74108;48.636;9.492;2024-02-26T05:42:18;95917.47;;;8.03;66.54
84022;BME280;74108;48.636;9.492;2024-02-26T05:44:44;95920.38;;;7.97;65.02
84022;BME280;74108;48.636;9.492;2024-02-26T05:47:09;95927.94;;;7.98;64.71
84022;BME280;74108;48.636;9.492;2024-02-26T05:49:35;95929.31;;;7.91;65.99
84022;BME280;74108;48.636;9.492;2024-02-26T05:52:00;95923.09;;;7.87;65.31
84022;BME280;74108;48.636;9.492;2024-02-26T05:54:25;95918.34;;;7.94;64.88
84022;BME280;74108;48.636;9.492;2024-02-26T05:56:51;95923.09;;;7.87;65.67
84022;BME280;74108;48.636;9.492;2024-02-26T05:59:17;95927.09;;;7.79;66.12
84022;BME280;74108;48.636;9.492;2024-02-26T06:01:42;95932.84;;;7.76;66.08
84022;BME280;74108;48.636;9.492;2024-02-26T06:04:08;95939.28;;;7.84;67.10
84022;BME280;74108;48.636;9.492;2024-02-26T06:06:33;95952.66;;;7.77;67.70
84022;BME280;74108;48.636;9.492;2024-02-26T06:08:58;95945.66;;;7.72;66.88
84022;BME280;74108;48.636;9.492;2024-02-26T06:11:24;95939.63;;;7.77;67.03
84022;BME280;74108;48.636;9.492;2024-02-26T06:13:49;95948.59;;;7.66;67.58
84022;BME280;74108;48.636;9.492;2024-02-26T06:16:15;95948.00;;;7.69;66.45
84022;BME280;74108;48.636;9.492;2024-02-26T06:18:41;95949.91;;;7.63;66.60
84022;BME280;74108;48.636;9.492;2024-02-26T06:21:09;95953.78;;;7.66;66.30
84022;BME280;74108;48.636;9.492;2024-02-26T06:23:35;95957.75;;;7.58;67.73
84022;BME280;74108;48.636;9.492;2024-02-26T06:26:01;95962.19;;;7.24;70.17
84022;BME280;74108;48.636;9.492;2024-02-26T06:28:26;95965.06;;;7.23;69.50
84022;BME280;74108;48.636;9.492;2024-02-26T06:30:53;95964.00;;;7.24;69.78
84022;BME280;74108;48.636;9.492;2024-02-26T06:33:19;95963.47;;;7.27;70.19
84022;BME280;74108;48.636;9.492;2024-02-26T06:35:44;95968.59;;;7.37;68.81
84022;BME280;74108;48.636;9.492;2024-02-26T06:38:10;95970.63;;;7.45;68.63
84022;BME280;74108;48.636;9.492;2024-02-26T06:40:37;95983.00;;;7.24;67.75
84022;BME280;74108;48.636;9.492;2024-02-26T06:43:04;95992.78;;;7.03;72.27
84022;BME280;74108;48.636;9.492;2024-02-26T06:45:29;96003.56;;;7.26;71.93
84022;BME280;74108;48.636;9.492;2024-02-26T06:47:55;96001.25;;;7.24;70.80
84022;BME280;74108;48.636;9.492;2024-02-26T06:50:22;96000.41;;;7.34;69.39
84022;BME280;74108;48.636;9.492;2024-02-26T06:52:47;95998.78;;;7.43;67.94
84022;BME280;74108;48.636;9.492;2024-02-26T06:55:13;95994.13;;;7.35;68.21
84022;BME280;74108;48.636;9.492;2024-02-26T06:57:38;95996.00;;;7.34;68.45
84022;BME280;74108;48.636;9.492;2024-02-26T07:00:04;95997.84;;;7.29;69.82
84022;BME280;74108;48.636;9.492;2024-02-26T07:02:30;96012.44;;;7.30;70.33
84022;BME280;74108;48.636;9.492;2024-02-26T07:04:55;96017.56;;;7.40;69.12
84022;BME280;74108;48.636;9.492;2024-02-26T07:07:23;96022.72;;;7.50;68.53
84022;BME280;74108;48.636;9.492;2024-02-26T07:09:48;96019.59;;;7.48;70.99
84022;BME280;74108;48.636;9.492;2024-02-26T07:12:14;96028.50;;;7.37;71.26
84022;BME280;74108;48.636;9.492;2024-02-26T07:14:41;96030.59;;;7.35;70.09
84022;BME280;74108;48.636;9.492;2024-02-26T07:17:07;96046.53;;;7.33;70.23
84022;BME280;74108;48.636;9.492;2024-02-26T07:19:33;96049.84;;;7.44;69.25
84022;BME280;74108;48.636;9.492;2024-02-26T07:21:58;96050.31;;;7.51;69.17
84022;BME280;74108;48.636;9.492;2024-02-26T07:24:26;96047.19;;;7.49;71.04
84022;BME280;74108;48.636;9.492;2024-02-26T07:26:51;96049.88;;;7.39;69.41
84022;BME280;74108;48.636;9.492;2024-02-26T07:29:19;96039.38;;;7.49;69.44
84022;BME280;74108;48.636;9.492;2024-02-26T07:31:45;96047.53;;;7.76;68.36
84022;BME280;74108;48.636;9.492;2024-02-26T07:34:10;96040.09;;;7.98;69.51
84022;BME280;74108;48.636;9.492;2024-02-26T07:36:35;96046.47;;;8.11;70.00
84022;BME280;74108;48.636;9.492;2024-02-26T07:39:01;96056.34;;;8.19;69.08
84022;BME280;74108;48.636;9.492;2024-02-26T07:41:26;96058.66;;;8.20;67.79
84022;BME280;74108;48.636;9.492;2024-02-26T07:43:52;96057.03;;;8.29;67.97
84022;BME280;74108;48.636;9.492;2024-02-26T07:46:17;96060.56;;;8.43;67.72
84022;BME280;74108;48.636;9.492;2024-02-26T07:48:43;96060.69;;;8.57;66.47
84022;BME280;74108;48.636;9.492;2024-02-26T07:51:08;96065.66;;;8.59;66.01
84022;BME280;74108;48.636;9.492;2024-02-26T07:53:34;96072.91;;;8.62;64.87
84022;BME280;74108;48.636;9.492;2024-02-26T07:55:59;96068.38;;;8.72;63.95
84022;BME280;74108;48.636;9.492;2024-02-26T07:58:25;96071.75;;;8.73;63.96
84022;BME280;74108;48.636;9.492;2024-02-26T08:00:50;96069.78;;;8.88;63.66
84022;BME280;74108;48.636;9.492;2024-02-26T08:03:15;96072.38;;;8.88;62.48
84022;BME280;74108;48.636;9.492;2024-02-26T08:05:41;96076.28;;;8.91;64.11
84022;BME280;74108;48.636;9.492;2024-02-26T08:08:08;96080.13;;;8.93;64.52
84022;BME280;74108;48.636;9.492;2024-02-26T08:10:34;96084.47;;;9.03;63.83
84022;BME280;74108;48.636;9.492;2024-02-26T08:12:59;96088.16;;;9.02;63.14
84022;BME280;74108;48.636;9.492;2024-02-26T08:15:31;96076.09;;;9.06;63.31
84022;BME280;74108;48.636;9.492;2024-02-26T08:17:57;96076.69;;;9.22;62.88
84022;BME280;74108;48.636;9.492;2024-02-26T08:20:23;96072.25;;;9.22;61.77
84022;BME280;74108;48.636;9.492;2024-02-26T08:22:48;96074.50;;;9.29;60.99
84022;BME280;74108;48.636;9.492;2024-02-26T08:25:14;96070.25;;;9.33;61.11
84022;BME280;74108;48.636;9.492;2024-02-26T08:27:41;96073.59;;;9.38;60.70
84022;BME280;74108;48.636;9.492;2024-02-26T08:30:07;96070.13;;;9.24;61.35
84022;BME280;74108;48.636;9.492;2024-02-26T08:32:32;96068.44;;;9.33;62.01
84022;BME280;74108;48.636;9.492;2024-02-26T08:34:58;96068.16;;;9.53;61.04
84022;BME280;74108;48.636;9.492;2024-02-26T08:37:23;96071.19;;;9.42;60.89
84022;BME280;74108;48.636;9.492;2024-02-26T08:39:48;96068.53;;;9.04;61.26
84022;BME280;74108;48.636;9.492;2024-02-26T08:42:14;96072.53;;;9.21;61.55
84022;BME280;74108;48.636;9.492;2024-02-26T08:44:39;96064.72;;;9.39;60.88
84022;BME280;74108;48.636;9.492;2024-02-26T08:47:04;96056.72;;;9.49;60.23
84022;BME280;74108;48.636;9.492;2024-02-26T08:49:30;96064.00;;;9.52;59.80
84022;BME280;74108;48.636;9.492;2024-02-26T08:51:56;96055.31;;;9.57;60.00
84022;BME280;74108;48.636;9.492;2024-02-26T08:54:22;96071.41;;;9.64;59.06
84022;BME280;74108;48.636;9.492;2024-02-26T08:56:47;96067.53;;;9.61;58.75
84022;BME280;74108;48.636;9.492;2024-02-26T08:59:12;96066.97;;;9.46;59.29
84022;BME280;74108;48.636;9.492;2024-02-26T09:01:38;96066.69;;;9.47;60.87
84022;BME280;74108;48.636;9.492;2024-02-26T09:04:03;96056.69;;;9.31;60.49
84022;BME280;74108;48.636;9.492;2024-02-26T09:06:29;96055.00;;;9.40;60.39
84022;BME280;74108;48.636;9.492;2024-02-26T09:08:54;96061.16;;;9.67;60.88
84022;BME280;74108;48.636;9.492;2024-02-26T09:11:20;96057.72;;;9.35;59.87
84022;BME280;74108;48.636;9.492;2024-02-26T09:13:45;96060.75;;;9.60;58.94
84022;BME280;74108;48.636;9.492;2024-02-26T09:16:11;96059.13;;;9.46;59.04
84022;BME280;74108;48.636;9.492;2024-02-26T09:18:37;96053.72;;;9.37;60.27
84022;BME280;74108;48.636;9.492;2024-02-26T09:21:05;96056.72;;;9.49;59.84
84022;BME280;74108;48.636;9.492;2024-02-26T09:23:31;96061.81;;;9.59;60.82
84022;BME280;74108;48.636;9.492;2024-02-26T09:25:56;96065.34;;;9.50;60.84
84022;BME280;74108;48.636;9.492;2024-02-26T09:28:22;96062.16;;;9.34;59.20
84022;BME280;74108;48.636;9.492;2024-02-26T09:30:47;96054.75;;;9.60;59.13
84022;BME280;74108;48.636;9.492;2024-02-26T09:33:14;96062.84;;;9.77;59.67
84022;BME280;74108;48.636;9.492;2024-02-26T09:35:39;96051.59;;;9.95;59.22
84022;BME280;74108;48.636;9.492;2024-02-26T09:38:05;96061.69;;;10.02;59.84
84022;BME280;74108;48.636;9.492;2024-02-26T09:40:30;96065.78;;;10.08;60.23
84022;BME280;74108;48.636;9.492;2024-02-26T09:42:59;96068.06;;;10.14;60.10
84022;BME280;74108;48.636;9.492;2024-02-26T09:45:25;96063.25;;;10.03;61.09
84022;BME280;74108;48.636;9.492;2024-02-26T09:47:55;96064.53;;;10.05;60.67
84022;BME280;74108;48.636;9.492;2024-02-26T09:50:21;96061.50;;;10.17;60.28
84022;BME280;74108;48.636;9.492;2024-02-26T09:52:48;96068.81;;;10.33;60.46
84022;BME280;74108;48.636;9.492;2024-02-26T09:55:14;96063.16;;;10.26;60.33
84022;BME280;74108;48.636;9.492;2024-02-26T09:57:44;96070.25;;;10.26;60.39
84022;BME280;74108;48.636;9.492;2024-02-26T10:00:15;96069.31;;;10.35;59.96
84022;BME280;74108;48.636;9.492;2024-02-26T10:02:44;96072.63;;;10.22;58.55
84022;BME280;74108;48.636;9.492;2024-02-26T10:05:12;96081.06;;;10.51;57.96
84022;BME280;74108;48.636;9.492;2024-02-26T10:07:40;96081.78;;;10.98;56.75
84022;BME280;74108;48.636;9.492;2024-02-26T10:10:06;96075.13;;;11.55;55.00
84022;BME280;74108;48.636;9.492;2024-02-26T10:12:33;96085.47;;;12.09;55.52
84022;BME280;74108;48.636;9.492;2024-02-26T10:14:58;96080.34;;;12.26;53.68
84022;BME280;74108;48.636;9.492;2024-02-26T10:17:24;96081.09;;;12.49;52.10
84022;BME280;74108;48.636;9.492;2024-02-26T10:19:50;96086.94;;;12.46;52.61
84022;BME280;74108;48.636;9.492;2024-02-26T10:22:16;96089.72;;;12.19;52.30
84022;BME280;74108;48.636;9.492;2024-02-26T10:24:42;96081.47;;;12.34;52.11
84022;BME280;74108;48.636;9.492;2024-02-26T10:27:08;96073.00;;;12.67;52.30
84022;BME280;74108;48.636;9.492;2024-02-26T10:29:34;96075.06;;;13.10;51.04
84022;BME280;74108;48.636;9.492;2024-02-26T10:31:59;96069.56;;;12.89;51.08
84022;BME280;74108;48.636;9.492;2024-02-26T10:34:26;96068.38;;;13.86;49.02
84022;BME280;74108;48.636;9.492;2024-02-26T10:36:51;96066.78;;;13.42;48.29
84022;BME280;74108;48.636;9.492;2024-02-26T10:39:17;96072.78;;;13.25;49.24
84022;BME280;74108;48.636;9.492;2024-02-26T10:41:44;96064.44;;;13.32;48.91
84022;BME280;74108;48.636;9.492;2024-02-26T10:44:11;96070.69;;;13.96;47.38
84022;BME280;74108;48.636;9.492;2024-02-26T10:46:37;96065.69;;;14.12;48.05
84022;BME280;74108;48.636;9.492;2024-02-26T10:49:04;96057.34;;;14.01;46.04
84022;BME280;74108;48.636;9.492;2024-02-26T10:51:30;96061.34;;;14.24;46.05
84022;BME280;74108;48.636;9.492;2024-02-26T10:53:57;96061.81;;;14.09;44.53
84022;BME280;74108;48.636;9.492;2024-02-26T10:56:28;96064.63;;;14.38;45.67
84022;BME280;74108;48.636;9.492;2024-02-26T10:58:57;96061.44;;;14.62;44.65
84022;BME280;74108;48.636;9.492;2024-02-26T11:01:24;96058.41;;;14.89;43.41
84022;BME280;74108;48.636;9.492;2024-02-26T11:03:51;96059.03;;;14.86;42.39
84022;BME280;74108;48.636;9.492;2024-02-26T11:06:20;96057.63;;;14.89;42.04
84022;BME280;74108;48.636;9.492;2024-02-26T11:08:49;96072.94;;;15.04;42.03
84022;BME280;74108;48.636;9.492;2024-02-26T11:11:19;96061.84;;;15.19;42.33
84022;BME280;74108;48.636;9.492;2024-02-26T11:13:47;96058.81;;;15.29;42.52
84022;BME280;74108;48.636;9.492;2024-02-26T11:16:20;96067.19;;;15.02;42.19
84022;BME280;74108;48.636;9.492;2024-02-26T11:18:47;96066.50;;;14.84;42.82
84022;BME280;74108;48.636;9.492;2024-02-26T11:21:17;96067.41;;;14.88;42.94
84022;BME280;74108;48.636;9.492;2024-02-26T11:23:53;96064.88;;;15.00;42.70
84022;BME280;74108;48.636;9.492;2024-02-26T11:26:20;96068.31;;;15.01;42.71
84022;BME280;74108;48.636;9.492;2024-02-26T11:28:48;96064.31;;;14.86;42.54
84022;BME280;74108;48.636;9.492;2024-02-26T11:31:14;96059.66;;;14.92;41.41
84022;BME280;74108;48.636;9.492;2024-02-26T11:33:40;96062.91;;;14.89;41.06
84022;BME280;74108;48.636;9.492;2024-02-26T11:36:09;96063.91;;;14.75;41.94
84022;BME280;74108;48.636;9.492;2024-02-26T11:38:35;96066.25;;;14.60;43.27
84022;BME280;74108;48.636;9.492;2024-02-26T11:41:01;96070.59;;;14.73;41.98
84022;BME280;74108;48.636;9.492;2024-02-26T11:44:01;96067.22;;;14.47;42.80
84022;BME280;74108;48.636;9.492;2024-02-26T11:51:54;96077.94;;;14.25;42.83
84022;BME280;74108;48.636;9.492;2024-02-26T11:59:45;96083.22;;;14.42;43.48
84022;BME280;74108;48.636;9.492;2024-02-26T12:02:10;96084.28;;;14.24;44.03
84022;BME280;74108;48.636;9.492;2024-02-26T12:04:38;96083.03;;;14.55;43.07
84022;BME280;74108;48.636;9.492;2024-02-26T12:07:04;96082.56;;;14.53;43.41
84022;BME280;74108;48.636;9.492;2024-02-26T12:09:48;96088.44;;;14.67;44.23
84022;BME280;74108;48.636;9.492;2024-02-26T12:12:18;96084.13;;;14.46;44.51
84022;BME280;74108;48.636;9.492;2024-02-26T12:14:56;96089.97;;;14.68;43.39
84022;BME280;74108;48.636;9.492;2024-02-26T12:17:25;96084.06;;;14.80;43.19
84022;BME280;74108;48.636;9.492;2024-02-26T12:19:51;96095.03;;;14.91;43.34
84022;BME280;74108;48.636;9.492;2024-02-26T12:22:19;96087.63;;;15.13;43.49
84022;BME280;74108;48.636;9.492;2024-02-26T12:24:44;96097.34;;;14.92;44.05
84022;BME280;74108;48.636;9.492;2024-02-26T12:27:11;96099.69;;;14.85;44.22
84022;BME280;74108;48.636;9.492;2024-02-26T12:29:37;96096.75;;;14.87;44.28
84022;BME280;74108;48.636;9.492;2024-02-26T12:32:05;96091.09;;;14.97;44.34
84022;BME280;74108;48.636;9.492;2024-02-26T12:34:31;96098.91;;;14.93;44.15
84022;BME280;74108;48.636;9.492;2024-02-26T12:36:57;96096.59;;;14.92;44.47
84022;BME280;74108;48.636;9.492;2024-02-26T12:39:22;96093.50;;;14.81;44.37
84022;BME280;74108;48.636;9.492;2024-02-26T12:41:48;96093.69;;;14.67;45.04
84022;BME280;74108;48.636;9.492;2024-02-26T12:44:18;96101.00;;;14.70;45.63
84022;BME280;74108;48.636;9.492;2024-02-26T12:46:44;96103.06;;;14.94;45.21
84022;BME280;74108;48.636;9.492;2024-02-26T12:49:14;96106.16;;;14.41;43.90
84022;BME280;74108;48.636;9.492;2024-02-26T12:51:40;96101.63;;;14.59;44.04
84022;BME280;74108;48.636;9.492;2024-02-26T12:54:07;96109.34;;;14.72;44.65
84022;BME280;74108;48.636;9.492;2024-02-26T12:56:33;96110.72;;;14.87;44.06
84022;BME280;74108;48.636;9.492;2024-02-26T12:58:59;96115.91;;;15.04;44.41
84022;BME280;74108;48.636;9.492;2024-02-26T13:01:25;96109.34;;;15.19;44.57
84022;BME280;74108;48.636;9.492;2024-02-26T13:03:51;96113.91;;;15.01;43.59
84022;BME280;74108;48.636;9.492;2024-02-26T13:06:18;96116.63;;;14.84;44.57
84022;BME280;74108;48.636;9.492;2024-02-26T13:08:48;96111.06;;;14.60;44.95
84022;BME280;74108;48.636;9.492;2024-02-26T13:11:14;96119.19;;;14.55;45.67
84022;BME280;74108;48.636;9.492;2024-02-26T13:13:39;96122.44;;;14.35;45.57